Carlsbad, New Mexico
Current Conditions -  °F | °C
As of 4:53 PM on Saturday 22 Nov 2014 (Local Time) from KCNM Reporting Station
Clear Clear  
Wind Chill: 65°   Ceiling: Unl
Heat Index: 65°   Visibility: 10mi
Dew Point: 25°   Wind: 21mph
Humidity: 22%   Direction: 250°WSW
Pressure: 29.8"   Gusts: NA
Location:  32.42°N, 104.22°W
Report Text: KCNM 222353Z AUTO 25018KT 10SM CLR 18/M04 A2980 RMK AO2 PK WND 26027/2324 SLP057 60000 T01831039 10233 20183 56006
Loading
Personal Weather Stations






























Interactive Weather Map New forecast layout! Learn more

10-Day Weather Forecast

Advertisements
Track Severe Weather on mobile